WEATHER DATA

YESTERDAY
Time Temp. Dewp. Hum. Bar.
00:08 16.8 10.4 66 1017.4
00:18 16.8 10.4 66 1017.4
00:29 16.7 10.3 66 1017.6
00:39 16.7 10.3 66 1017.4
00:48 16.6 10.2 66 1017.4
00:58 16.6 10.2 66 1017.3
01:09 16.6 10.2 66 1017.1
01:19 16.5 10.1 66 1017.1
01:29 16.5 10.1 66 1017
01:39 16.4 10 66 1016.9
01:49 16.4 10 66 1016.7
01:59 16.3 9.9 66 1016.6
02:09 16.3 9.9 66 1016.4
02:20 16.3 9.9 66 1016.4
02:30 16.2 9.8 66 1016.3
02:39 16.2 9.8 66 1016.3
02:50 16.2 9.8 66 1016.4
03:00 16.1 9.8 66 1016.4
03:10 16.1 9.8 66 1016.3
03:20 16 9.7 66 1016.2
03:30 16 9.7 66 1016.2
03:40 16 9.7 66 1016.2
03:50 15.9 9.6 66 1016.3
04:00 15.9 9.8 67 1016.2
04:11 15.9 9.6 66 1016.2
04:21 15.9 9.6 66 1016.1
04:30 15.8 9.5 66 1016.2
04:41 15.8 9.5 66 1016.2
04:51 15.8 9.5 66 1016.2
05:01 15.8 9.5 66 1016.2
05:11 15.8 9.7 67 1016.1
05:21 15.8 9.7 67 1016.1
05:31 15.7 9.4 66 1016.2
05:41 15.7 9.6 67 1016
05:52 15.7 9.6 67 1015.8
06:02 15.7 9.6 67 1015.8
06:11 15.7 9.6 67 1015.8
06:21 15.7 9.6 67 1015.7
06:32 15.7 9.6 67 1015.8
06:42 15.7 9.6 67 1015.9
06:52 15.7 9.6 67 1015.9
07:02 15.7 9.6 67 1016.1
07:12 15.7 9.6 67 1016.2
07:22 15.8 9.7 67 1016
07:32 15.8 9.5 66 1016
07:43 15.9 9.6 66 1016
07:53 15.9 9.6 66 1016
08:02 16 9.7 66 1015.9
08:12 16 9.7 66 1015.8
08:23 16.1 9.8 66 1016
08:33 16.2 9.6 65 1016
08:43 16.3 9.7 65 1016.3
08:53 16.5 9.9 65 1016.2
09:03 16.7 9.9 64 1016.2
09:13 16.9 10.1 64 1016.3
09:23 17.1 10 63 1016.6
09:34 17.2 10.1 63 1016.4
09:43 17.2 10.1 63 1016.3
09:53 17.3 10.2 63 1016.1
10:04 17.4 10.3 63 1016.2
10:14 17.5 10.1 62 1016.2
10:24 17.6 10.2 62 1016.1
10:33 17.7 10.3 62 1016.1
10:44 17.7 10.3 62 1016
10:54 17.8 10.4 62 1016.1
11:04 17.8 10.4 62 1016.1
11:15 17.8 10.4 62 1016
11:25 17.9 10.5 62 1016.1
11:34 18 10.4 61 1016.1
11:44 18 10.4 61 1016.1
11:55 18.2 10.6 61 1016.1
12:05 18.3 10.7 61 1016.3
12:15 18.4 10.8 61 1016.2
12:25 18.6 10.9 61 1016.3
12:35 18.7 10.8 60 1016.4
12:45 18.9 11 60 1016.3
12:55 19 11.1 60 1016.2
13:06 19.1 11.2 60 1016.2
13:15 19.2 11 59 1016.2
13:25 19.2 11 59 1016
13:35 19.3 11.1 59 1016
13:46 19.4 11.2 59 1016.2
13:56 19.5 11.3 59 1016.2
14:05 19.6 11.4 59 1016.1
14:16 19.7 11.5 59 1016.1
14:26 19.8 11.6 59 1016.2
14:36 19.8 11.6 59 1016.1
14:46 19.9 11.7 59 1016
14:57 19.9 11.7 59 1015.9
15:06 19.9 11.7 59 1016
15:16 19.9 11.7 59 1015.8
15:27 19.9 11.7 59 1015.8
15:37 19.8 11.6 59 1015.7
15:47 19.8 11.6 59 1015.7
15:56 19.8 11.6 59 1015.7
16:07 19.7 11.7 60 1015.3
16:17 19.7 11.7 60 1015.1
16:27 19.7 11.7 60 1015.1
16:38 19.6 11.6 60 1015.3
16:47 19.5 11.5 60 1015.2
16:57 19.4 11.4 60 1015.2
17:07 19.3 11.6 61 1015.2
17:18 19.2 11.5 61 1015.1
17:28 19.2 11.5 61 1015
17:37 19.2 11.5 61 1015
17:48 19.1 11.7 62 1015
17:58 19.1 11.7 62 1015
18:08 19 11.6 62 1014.9
18:18 18.9 11.5 62 1014.8
18:29 18.8 11.4 62 1014.9
18:38 18.8 11.6 63 1014.9
18:48 18.7 11.5 63 1015
18:58 18.7 11.5 63 1015
19:09 18.6 11.4 63 1014.9
19:19 18.6 11.4 63 1014.9
19:28 18.5 11.6 64 1014.8
19:39 18.5 11.6 64 1014.8
19:49 18.4 11.5 64 1014.8
19:59 18.4 11.5 64 1014.7
20:09 18.3 11.4 64 1014.7
20:19 18.3 11.4 64 1014.8
20:29 18.2 11.3 64 1014.8
20:39 18.1 11.4 65 1014.8
20:50 18.1 11.4 65 1014.7
21:00 18.1 11.4 65 1014.7
21:10 18 11.3 65 1014.7
21:19 18 11.3 65 1014.7
21:30 18 11.3 65 1014.7
21:40 18 11.3 65 1014.8
21:50 17.9 11.2 65 1014.7
22:00 17.9 11.2 65 1014.6
22:10 17.9 11.2 65 1014.5
22:20 17.9 11.2 65 1014.7
22:30 17.9 11.2 65 1014.7
22:41 17.9 11.5 66 1014.7
22:51 17.8 11.4 66 1014.7
23:00 17.8 11.4 66 1014.7
23:11 17.8 11.4 66 1014.8
23:21 17.8 11.4 66 1014.6
23:31 17.8 11.4 66 1014.6
23:41 17.8 11.4 66 1014.7
23:52 17.8 11.4 66 1014.7

DAY STATISTIC

2019-08-17
TEMPERATURE
AVERAGE
17.6
HIGH
19.9
14:46
LOW
15.7
05:31
PRESSURE
AVERAGE
1015.8
HIGH
1017.6
00:29
LOW
1014.5
22:10
DEWPOINT
AVERAGE
10.7
HIGH
11.7
14:46
LOW
9.4
05:31
HUMIDITY
AVERAGE
64
HIGH
67
04:00
LOW
59
13:15
TEMPERATURE (°C)
LOW
15.7
HIGH
19.9
AVERAGE
17.6
PRESSURE (hpa)
LOW
1014.5
HIGH
1017.6
AVERAGE
1015.8
DEVICE